Kumano Maru — JD2155 — position and weather

sailwx.info

Track history (hours):
 
Tides and Currents Weather Stations Pressure Air Temp Water Temp Dewpoint Dewpoint Depression Visibility Wind Speed Wind Dir Waves Ship Positions

Kumano Maru

Last reported at 2017-Dec-11 10:19 UTC. Time now 2017-Dec-12 20:00 UTC.
Position N 34°08' E 134°39'.

Length 65 m; draft 4 m.

MMSI: 431402029.

Date/timePositionNaut miles runAvg speedWind from/ knotsBaromVisibWave heightAir tempDewpointWater temp
2017-Dec-11 10:19N 34°08' E 134°39'411.7
2017-Dec-11 09:59N 34°11' E 134°40'611.5
2017-Dec-11 09:29N 34°16' E 134°36'5 0.2
2017-Dec-10 06:19N 34°18' E 134°30'411.9
2017-Dec-10 05:58N 34°17' E 134°35'10 9.8
2017-Dec-10 04:57N 34°07' E 134°39'2 5.1
2017-Dec-10 04:28N 34°07' E 134°36'2 2.4
2017-Dec-10 03:44N 34°07' E 134°34'0 0.0
2017-Dec-10 00:20N 34°07' E 134°34'4 2.2
2017-Dec-09 22:24N 34°06' E 134°38'0 0.0
2017-Dec-09 21:56N 34°06' E 134°38'0 0.0
2017-Dec-09 21:28N 34°06' E 134°38'0 0.0
2017-Dec-09 21:00N 34°06' E 134°38'23 8.7
2017-Dec-09 18:18N 33°50' E 134°60'106 8.0
2017-Dec-09 05:05N 34°38' E 136°54'112.0
2017-Dec-09 05:00N 34°38' E 136°53'611.6
2017-Dec-09 04:30N 34°43' E 136°49'611.8
2017-Dec-09 04:00N 34°48' E 136°46'611.4
2017-Dec-09 03:30N 34°54' E 136°46'611.2
2017-Dec-09 03:01N 34°59' E 136°49'510.3
2017-Dec-09 02:30N 35°04' E 136°52'2 3.6
2017-Dec-09 02:00N 35°05' E 136°53'0 0.0
2017-Dec-09 01:30N 35°05' E 136°53'0 0.0
2017-Dec-09 01:00N 35°05' E 136°53'0 0.0
2017-Dec-09 00:30N 35°05' E 136°53'0 0.0
2017-Dec-09 00:00N 35°05' E 136°53'0 0.0
2017-Dec-08 23:31N 35°05' E 136°53'0 0.0
2017-Dec-08 23:00N 35°05' E 136°53'1 1.7
2017-Dec-08 22:31N 35°04' E 136°52'3 6.9
2017-Dec-08 22:00N 35°01' E 136°51'5 9.8
2017-Dec-08 21:30N 34°57' E 136°47'1 2.7
2017-Dec-08 21:00N 34°56' E 136°46'0 0.1
2017-Dec-08 20:30N 34°56' E 136°46'4 8.3
2017-Dec-08 20:01N 34°52' E 136°47'5 9.4
2017-Dec-08 19:30N 34°47' E 136°47'74 9.1
2017-Dec-08 11:20N 34°34' E 138°16'310.3
2017-Dec-08 11:00N 34°36' E 138°19'511.1
2017-Dec-08 10:30N 34°41' E 138°23'611.7
2017-Dec-08 10:00N 34°46' E 138°26'611.6
2017-Dec-08 09:30N 34°51' E 138°29'611.5
2017-Dec-08 09:00N 34°56' E 138°32'510.3
2017-Dec-08 08:30N 35°02' E 138°32'1 3.0
2017-Dec-08 08:00N 35°02' E 138°30'0 0.0
2017-Dec-08 07:31N 35°02' E 138°30'0 0.0
2017-Dec-08 07:00N 35°02' E 138°30'0 0.0
2017-Dec-08 06:31N 35°02' E 138°30'0 0.1
2017-Dec-08 06:00N 35°02' E 138°30'0 0.0
2017-Dec-08 05:30N 35°02' E 138°30'0 0.1
2017-Dec-08 05:01N 35°02' E 138°30'0 0.0
2017-Dec-08 04:31N 35°02' E 138°30'0 0.0
2017-Dec-08 04:01N 35°02' E 138°30'1 2.0
2017-Dec-08 03:30N 35°01' E 138°30'0 0.5
2017-Dec-08 03:00N 35°01' E 138°30'0 0.0
2017-Dec-08 02:30N 35°01' E 138°30'0 0.0
2017-Dec-08 02:00N 35°01' E 138°30'0 0.0
2017-Dec-08 01:31N 35°01' E 138°30'0 0.0
2017-Dec-08 01:00N 35°01' E 138°30'0 0.0
2017-Dec-08 00:30N 35°01' E 138°30'0 0.0
2017-Dec-08 00:00N 35°01' E 138°30'1 1.7
2017-Dec-07 23:30N 35°01' E 138°30'0 0.2
2017-Dec-07 23:00N 35°01' E 138°30'0 0.0
2017-Dec-07 22:31N 35°01' E 138°30'0 0.0
2017-Dec-07 22:00N 35°01' E 138°30'0 0.0
2017-Dec-07 21:30N 35°01' E 138°30'0 0.0
2017-Dec-07 21:00N 35°01' E 138°30'0 0.0
2017-Dec-07 20:30N 35°01' E 138°30'0 0.0
2017-Dec-07 20:00N 35°01' E 138°30'0 0.0
2017-Dec-07 19:30N 35°01' E 138°30'0 0.0
2017-Dec-07 19:00N 35°01' E 138°30'0 0.0
2017-Dec-07 18:31N 35°01' E 138°30'0 0.0
2017-Dec-07 18:00N 35°01' E 138°30'0 0.0
2017-Dec-07 17:30N 35°01' E 138°30'0 0.0
2017-Dec-07 17:01N 35°01' E 138°30'0 0.0
2017-Dec-07 16:31N 35°01' E 138°30'0 0.0
2017-Dec-07 16:00N 35°01' E 138°30'0 0.0
2017-Dec-07 15:30N 35°01' E 138°30'0 0.1
2017-Dec-07 15:00N 35°01' E 138°30'1 1.3
2017-Dec-07 14:30N 35°02' E 138°31'3 6.5
2017-Dec-07 14:00N 34°59' E 138°33'611.2
2017-Dec-07 13:30N 34°53' E 138°30'610.9
2017-Dec-07 13:00N 34°49' E 138°27'510.4
2017-Dec-07 12:30N 34°44' E 138°24'610.3
2017-Dec-07 11:55N 34°39' E 138°20'610.9
2017-Dec-07 11:23N 34°34' E 138°16'  
2017-Dec-02 19:17N 33°14' E 132°02'510.9
2017-Dec-02 18:51N 33°18' E 132°00'4 9.4
2017-Dec-02 18:25N 33°22' E 131°59'3211.8
2017-Dec-02 15:41N 33°45' E 132°26'212.7
2017-Dec-02 15:30N 33°47' E 132°28'712.9
2017-Dec-02 14:57N 33°52' E 132°35'613.0
2017-Dec-02 14:30N 33°56' E 132°40'612.1
2017-Dec-02 14:00N 34°00' E 132°45'1 0.1
2017-Dec-01 16:01N 34°01' E 132°46'110.0
2017-Dec-01 15:58N 34°00' E 132°45'4 9.4
2017-Dec-01 15:30N 33°57' E 132°42'7 9.5
2017-Dec-01 14:45N 33°53' E 132°35'910.3
2017-Dec-01 13:54N 33°50' E 132°25'4 9.6
2017-Dec-01 13:30N 33°50' E 132°20'5 9.8
2017-Dec-01 12:58N 33°50' E 132°14'5 9.2
2017-Dec-01 12:26N 33°48' E 132°08'4 9.6
2017-Dec-01 12:00N 33°46' E 132°04'911.8
2017-Dec-01 11:12N 33°45' E 131°53'412.2
2017-Dec-01 10:51N 33°47' E 131°48'412.0
2017-Dec-01 10:30N 33°48' E 131°43'  
Track history (hours):
 
Tides and Currents Weather Stations Pressure Air Temp Water Temp Dewpoint Dewpoint Depression Visibility Wind Speed Wind Dir Waves Ship Positions

Kumano Maru

Last reported at 2017-Dec-11 10:19 UTC. Time now 2017-Dec-12 20:00 UTC.
Position N 34°08' E 134°39'.

Length 65 m; draft 4 m.

MMSI: 431402029.

Date/timePositionNaut miles runAvg speedWind from/ knotsBaromVisibWave heightAir tempDewpointWater temp
2017-Dec-11 10:19N 34°08' E 134°39'411.7
2017-Dec-11 09:59N 34°11' E 134°40'611.5
2017-Dec-11 09:29N 34°16' E 134°36'5 0.2
2017-Dec-10 06:19N 34°18' E 134°30'411.9
2017-Dec-10 05:58N 34°17' E 134°35'10 9.8
2017-Dec-10 04:57N 34°07' E 134°39'2 5.1
2017-Dec-10 04:28N 34°07' E 134°36'2 2.4
2017-Dec-10 03:44N 34°07' E 134°34'0 0.0
2017-Dec-10 00:20N 34°07' E 134°34'4 2.2
2017-Dec-09 22:24N 34°06' E 134°38'0 0.0
2017-Dec-09 21:56N 34°06' E 134°38'0 0.0
2017-Dec-09 21:28N 34°06' E 134°38'0 0.0
2017-Dec-09 21:00N 34°06' E 134°38'23 8.7
2017-Dec-09 18:18N 33°50' E 134°60'106 8.0
2017-Dec-09 05:05N 34°38' E 136°54'112.0
2017-Dec-09 05:00N 34°38' E 136°53'611.6
2017-Dec-09 04:30N 34°43' E 136°49'611.8
2017-Dec-09 04:00N 34°48' E 136°46'611.4
2017-Dec-09 03:30N 34°54' E 136°46'611.2
2017-Dec-09 03:01N 34°59' E 136°49'510.3
2017-Dec-09 02:30N 35°04' E 136°52'2 3.6
2017-Dec-09 02:00N 35°05' E 136°53'0 0.0
2017-Dec-09 01:30N 35°05' E 136°53'0 0.0
2017-Dec-09 01:00N 35°05' E 136°53'0 0.0
2017-Dec-09 00:30N 35°05' E 136°53'0 0.0
2017-Dec-09 00:00N 35°05' E 136°53'0 0.0
2017-Dec-08 23:31N 35°05' E 136°53'0 0.0
2017-Dec-08 23:00N 35°05' E 136°53'1 1.7
2017-Dec-08 22:31N 35°04' E 136°52'3 6.9
2017-Dec-08 22:00N 35°01' E 136°51'5 9.8
2017-Dec-08 21:30N 34°57' E 136°47'1 2.7
2017-Dec-08 21:00N 34°56' E 136°46'0 0.1
2017-Dec-08 20:30N 34°56' E 136°46'4 8.3
2017-Dec-08 20:01N 34°52' E 136°47'5 9.4
2017-Dec-08 19:30N 34°47' E 136°47'74 9.1
2017-Dec-08 11:20N 34°34' E 138°16'310.3
2017-Dec-08 11:00N 34°36' E 138°19'511.1
2017-Dec-08 10:30N 34°41' E 138°23'611.7
2017-Dec-08 10:00N 34°46' E 138°26'611.6
2017-Dec-08 09:30N 34°51' E 138°29'611.5
2017-Dec-08 09:00N 34°56' E 138°32'510.3
2017-Dec-08 08:30N 35°02' E 138°32'1 3.0
2017-Dec-08 08:00N 35°02' E 138°30'0 0.0
2017-Dec-08 07:31N 35°02' E 138°30'0 0.0
2017-Dec-08 07:00N 35°02' E 138°30'0 0.0
2017-Dec-08 06:31N 35°02' E 138°30'0 0.1
2017-Dec-08 06:00N 35°02' E 138°30'0 0.0
2017-Dec-08 05:30N 35°02' E 138°30'0 0.1
2017-Dec-08 05:01N 35°02' E 138°30'0 0.0
2017-Dec-08 04:31N 35°02' E 138°30'0 0.0
2017-Dec-08 04:01N 35°02' E 138°30'1 2.0
2017-Dec-08 03:30N 35°01' E 138°30'0 0.5
2017-Dec-08 03:00N 35°01' E 138°30'0 0.0
2017-Dec-08 02:30N 35°01' E 138°30'0 0.0
2017-Dec-08 02:00N 35°01' E 138°30'0 0.0
2017-Dec-08 01:31N 35°01' E 138°30'0 0.0
2017-Dec-08 01:00N 35°01' E 138°30'0 0.0
2017-Dec-08 00:30N 35°01' E 138°30'0 0.0
2017-Dec-08 00:00N 35°01' E 138°30'1 1.7
2017-Dec-07 23:30N 35°01' E 138°30'0 0.2
2017-Dec-07 23:00N 35°01' E 138°30'0 0.0
2017-Dec-07 22:31N 35°01' E 138°30'0 0.0
2017-Dec-07 22:00N 35°01' E 138°30'0 0.0
2017-Dec-07 21:30N 35°01' E 138°30'0 0.0
2017-Dec-07 21:00N 35°01' E 138°30'0 0.0
2017-Dec-07 20:30N 35°01' E 138°30'0 0.0
2017-Dec-07 20:00N 35°01' E 138°30'0 0.0
2017-Dec-07 19:30N 35°01' E 138°30'0 0.0
2017-Dec-07 19:00N 35°01' E 138°30'0 0.0
2017-Dec-07 18:31N 35°01' E 138°30'0 0.0
2017-Dec-07 18:00N 35°01' E 138°30'0 0.0
2017-Dec-07 17:30N 35°01' E 138°30'0 0.0
2017-Dec-07 17:01N 35°01' E 138°30'0 0.0
2017-Dec-07 16:31N 35°01' E 138°30'0 0.0
2017-Dec-07 16:00N 35°01' E 138°30'0 0.0
2017-Dec-07 15:30N 35°01' E 138°30'0 0.1
2017-Dec-07 15:00N 35°01' E 138°30'1 1.3
2017-Dec-07 14:30N 35°02' E 138°31'3 6.5
2017-Dec-07 14:00N 34°59' E 138°33'611.2
2017-Dec-07 13:30N 34°53' E 138°30'610.9
2017-Dec-07 13:00N 34°49' E 138°27'510.4
2017-Dec-07 12:30N 34°44' E 138°24'610.3
2017-Dec-07 11:55N 34°39' E 138°20'610.9
2017-Dec-07 11:23N 34°34' E 138°16'  
2017-Dec-02 19:17N 33°14' E 132°02'510.9
2017-Dec-02 18:51N 33°18' E 132°00'4 9.4
2017-Dec-02 18:25N 33°22' E 131°59'3211.8
2017-Dec-02 15:41N 33°45' E 132°26'212.7
2017-Dec-02 15:30N 33°47' E 132°28'712.9
2017-Dec-02 14:57N 33°52' E 132°35'613.0
2017-Dec-02 14:30N 33°56' E 132°40'612.1
2017-Dec-02 14:00N 34°00' E 132°45'1 0.1
2017-Dec-01 16:01N 34°01' E 132°46'110.0
2017-Dec-01 15:58N 34°00' E 132°45'4 9.4
2017-Dec-01 15:30N 33°57' E 132°42'7 9.5
2017-Dec-01 14:45N 33°53' E 132°35'910.3
2017-Dec-01 13:54N 33°50' E 132°25'4 9.6
2017-Dec-01 13:30N 33°50' E 132°20'5 9.8
2017-Dec-01 12:58N 33°50' E 132°14'5 9.2
2017-Dec-01 12:26N 33°48' E 132°08'4 9.6
2017-Dec-01 12:00N 33°46' E 132°04'911.8
2017-Dec-01 11:12N 33°45' E 131°53'412.2
2017-Dec-01 10:51N 33°47' E 131°48'412.0
2017-Dec-01 10:30N 33°48' E 131°43'  

Dump ship's entire track history